createdAt,value
2023-12-17T00:03:21.012Z,4.25
2023-12-17T00:18:26.941Z,4.13
2023-12-17T00:33:32.992Z,4.31
2023-12-17T00:48:38.669Z,4.19
2023-12-17T01:03:44.528Z,4.19
2023-12-17T08:43:05.332Z,3.25
2023-12-17T08:58:11.191Z,3.19
2023-12-17T09:13:16.821Z,3.50
2023-12-17T09:28:22.534Z,3.81
2023-12-17T09:43:28.734Z,4.06
2023-12-17T09:58:34.228Z,4.25
2023-12-17T10:13:39.977Z,4.38
2023-12-17T10:28:47.942Z,4.38
2023-12-17T10:43:54.340Z,4.63
2023-12-17T10:59:01.012Z,4.69
2023-12-17T11:14:06.862Z,4.69
2023-12-17T11:29:36.695Z,4.88
2023-12-17T11:44:47.056Z,4.88
2023-12-17T11:59:53.233Z,4.88
2023-12-17T12:14:59.124Z,4.88
2023-12-17T12:30:05.191Z,5.06
2023-12-17T12:45:12.201Z,5.00
2023-12-17T13:00:20.075Z,4.94
2023-12-17T13:15:25.652Z,4.94
2023-12-17T13:30:34.209Z,4.94
2023-12-17T13:45:40.836Z,4.88
2023-12-17T14:00:46.566Z,4.81
2023-12-17T14:15:52.498Z,4.75
2023-12-17T14:30:58.377Z,4.69
2023-12-17T14:46:04.768Z,4.56
2023-12-17T15:01:21.376Z,4.38
2023-12-17T15:16:35.526Z,4.38
2023-12-17T15:31:41.301Z,4.13
2023-12-17T15:46:46.982Z,4.06
2023-12-17T16:01:52.730Z,3.94
2023-12-17T16:16:59.004Z,3.81
2023-12-17T16:32:04.728Z,3.81
2023-12-17T16:47:10.177Z,3.50
2023-12-17T17:02:15.882Z,3.56
2023-12-17T17:17:21.930Z,3.44
2023-12-17T17:32:27.890Z,3.38
2023-12-17T17:47:33.759Z,3.38
2023-12-17T18:02:39.939Z,3.31
2023-12-17T18:17:46.303Z,3.25
2023-12-17T18:32:52.507Z,3.25
2023-12-17T18:48:00.674Z,3.13
2023-12-17T19:03:09.811Z,3.13
2023-12-17T19:18:16.291Z,3.06
2023-12-17T19:33:22.843Z,3.00
2023-12-17T19:48:28.725Z,3.00
2023-12-17T20:03:34.769Z,2.94
2023-12-17T20:18:41.241Z,2.94
2023-12-17T20:33:47.175Z,2.81
2023-12-17T20:48:52.870Z,2.94
2023-12-17T21:03:58.931Z,2.94
2023-12-17T21:19:04.910Z,2.81
2023-12-17T21:34:10.960Z,2.81
2023-12-17T21:49:17.978Z,2.75
2023-12-17T22:04:24.373Z,2.81
2023-12-17T22:19:30.260Z,2.75
2023-12-17T22:34:37.540Z,2.75
2023-12-17T22:49:43.256Z,2.69
2023-12-17T23:04:48.950Z,2.63
2023-12-17T23:19:54.616Z,2.69
2023-12-17T23:35:00.089Z,2.56
2023-12-17T23:50:06.482Z,2.56
